Marion, Montana
Current Conditions -  °F | °C
As of 10:55 PM on Friday 19 Dec 2014 (Local Time) from KGPI Reporting Station
Overcast Overcast  
Wind Chill: 30°   Ceiling: 4000
Heat Index: 36°   Visibility: 10mi
Dew Point: 34°   Wind: 8mph
Humidity: 93%   Direction: 150°SSE
Pressure: 29.94"   Gusts: NA
Location:  48.11°N, 114.66°W
Report Text: KGPI 200555Z 15007KT 10SM OVC040 02/01 A2994 RMK AO2 SLP159 60000 T00220011 10028 20017 53012 $
Loading
Personal Weather Stations






























Interactive Weather Map New forecast layout! Learn more

10-Day Weather Forecast

Advertisements
Track Severe Weather on mobile